sensor_id;sensor_type;location;lat;lon;timestamp;P1;durP1;ratioP1;P2;durP2;ratioP2
26920;SDS011;14483;47.844;9.660;2023-02-15T00:01:11;15.90;;;8.00;;
26920;SDS011;14483;47.844;9.660;2023-02-15T00:03:39;15.20;;;8.70;;
26920;SDS011;14483;47.844;9.660;2023-02-15T00:06:05;15.50;;;8.63;;
26920;SDS011;14483;47.844;9.660;2023-02-15T00:08:32;17.10;;;8.45;;
26920;SDS011;14483;47.844;9.660;2023-02-15T00:11:05;15.48;;;8.25;;
26920;SDS011;14483;47.844;9.660;2023-02-15T00:13:31;16.77;;;9.57;;
26920;SDS011;14483;47.844;9.660;2023-02-15T00:16:00;14.98;;;9.52;;
26920;SDS011;14483;47.844;9.660;2023-02-15T00:18:26;16.58;;;9.73;;
26920;SDS011;14483;47.844;9.660;2023-02-15T00:20:54;16.73;;;9.57;;
26920;SDS011;14483;47.844;9.660;2023-02-15T00:23:20;16.05;;;9.38;;
26920;SDS011;14483;47.844;9.660;2023-02-15T00:25:47;16.23;;;9.55;;
26920;SDS011;14483;47.844;9.660;2023-02-15T00:28:13;15.63;;;9.02;;
26920;SDS011;14483;47.844;9.660;2023-02-15T00:30:40;14.80;;;8.68;;
26920;SDS011;14483;47.844;9.660;2023-02-15T00:33:06;15.68;;;8.02;;
26920;SDS011;14483;47.844;9.660;2023-02-15T00:35:32;17.40;;;9.35;;
26920;SDS011;14483;47.844;9.660;2023-02-15T00:38:00;16.55;;;8.50;;
26920;SDS011;14483;47.844;9.660;2023-02-15T00:40:27;15.77;;;8.85;;
26920;SDS011;14483;47.844;9.660;2023-02-15T00:42:53;16.35;;;9.00;;
26920;SDS011;14483;47.844;9.660;2023-02-15T00:45:19;14.13;;;8.15;;
26920;SDS011;14483;47.844;9.660;2023-02-15T00:47:47;19.30;;;9.07;;
26920;SDS011;14483;47.844;9.660;2023-02-15T00:50:13;15.95;;;9.88;;
26920;SDS011;14483;47.844;9.660;2023-02-15T00:52:39;14.93;;;8.90;;
26920;SDS011;14483;47.844;9.660;2023-02-15T00:55:07;17.08;;;9.25;;
26920;SDS011;14483;47.844;9.660;2023-02-15T00:57:34;15.65;;;8.77;;
26920;SDS011;14483;47.844;9.660;2023-02-15T01:00:00;16.52;;;9.75;;
26920;SDS011;14483;47.844;9.660;2023-02-15T01:02:26;12.45;;;7.95;;
26920;SDS011;14483;47.844;9.660;2023-02-15T01:04:53;13.13;;;8.55;;
26920;SDS011;14483;47.844;9.660;2023-02-15T01:07:19;14.93;;;8.65;;
26920;SDS011;14483;47.844;9.660;2023-02-15T01:09:45;16.70;;;9.02;;
26920;SDS011;14483;47.844;9.660;2023-02-15T01:12:13;15.57;;;8.60;;
26920;SDS011;14483;47.844;9.660;2023-02-15T01:14:40;14.35;;;8.65;;
26920;SDS011;14483;47.844;9.660;2023-02-15T01:17:06;15.65;;;8.55;;
26920;SDS011;14483;47.844;9.660;2023-02-15T01:19:33;14.30;;;7.85;;
26920;SDS011;14483;47.844;9.660;2023-02-15T01:21:59;13.90;;;7.50;;
26920;SDS011;14483;47.844;9.660;2023-02-15T01:24:25;15.10;;;8.50;;
26920;SDS011;14483;47.844;9.660;2023-02-15T01:26:52;15.65;;;8.73;;
26920;SDS011;14483;47.844;9.660;2023-02-15T01:29:19;19.25;;;8.48;;
26920;SDS011;14483;47.844;9.660;2023-02-15T01:31:46;13.13;;;8.07;;
26920;SDS011;14483;47.844;9.660;2023-02-15T01:34:12;13.90;;;8.68;;
26920;SDS011;14483;47.844;9.660;2023-02-15T01:36:39;13.40;;;7.75;;
26920;SDS011;14483;47.844;9.660;2023-02-15T01:39:05;15.38;;;7.88;;
26920;SDS011;14483;47.844;9.660;2023-02-15T01:41:32;14.00;;;7.75;;
26920;SDS011;14483;47.844;9.660;2023-02-15T01:43:59;13.95;;;8.05;;
26920;SDS011;14483;47.844;9.660;2023-02-15T01:46:28;13.57;;;7.80;;
26920;SDS011;14483;47.844;9.660;2023-02-15T01:48:59;13.65;;;7.90;;
26920;SDS011;14483;47.844;9.660;2023-02-15T01:51:27;15.77;;;8.70;;
26920;SDS011;14483;47.844;9.660;2023-02-15T01:53:56;16.77;;;7.40;;
26920;SDS011;14483;47.844;9.660;2023-02-15T01:56:25;13.80;;;7.97;;
26920;SDS011;14483;47.844;9.660;2023-02-15T01:58:54;10.30;;;6.68;;
26920;SDS011;14483;47.844;9.660;2023-02-15T02:01:22;15.15;;;8.02;;
26920;SDS011;14483;47.844;9.660;2023-02-15T02:03:53;13.95;;;7.93;;
26920;SDS011;14483;47.844;9.660;2023-02-15T02:06:21;14.00;;;7.93;;
26920;SDS011;14483;47.844;9.660;2023-02-15T02:08:48;13.63;;;7.55;;
26920;SDS011;14483;47.844;9.660;2023-02-15T02:11:14;14.40;;;7.47;;
26920;SDS011;14483;47.844;9.660;2023-02-15T02:13:41;12.88;;;7.32;;
26920;SDS011;14483;47.844;9.660;2023-02-15T02:16:09;12.68;;;7.75;;
26920;SDS011;14483;47.844;9.660;2023-02-15T02:18:40;14.50;;;7.85;;
26920;SDS011;14483;47.844;9.660;2023-02-15T02:24:00;14.80;;;7.85;;
26920;SDS011;14483;47.844;9.660;2023-02-15T02:26:38;15.68;;;8.57;;
26920;SDS011;14483;47.844;9.660;2023-02-15T02:32:08;16.08;;;8.30;;
26920;SDS011;14483;47.844;9.660;2023-02-15T02:34:42;13.93;;;7.82;;
26920;SDS011;14483;47.844;9.660;2023-02-15T02:37:12;17.17;;;8.73;;
26920;SDS011;14483;47.844;9.660;2023-02-15T02:39:42;14.07;;;7.78;;
26920;SDS011;14483;47.844;9.660;2023-02-15T02:42:15;15.15;;;8.93;;
26920;SDS011;14483;47.844;9.660;2023-02-15T02:44:46;16.02;;;8.77;;
26920;SDS011;14483;47.844;9.660;2023-02-15T02:47:15;15.07;;;8.77;;
26920;SDS011;14483;47.844;9.660;2023-02-15T02:49:45;17.63;;;9.70;;
26920;SDS011;14483;47.844;9.660;2023-02-15T02:54:56;15.38;;;8.13;;
26920;SDS011;14483;47.844;9.660;2023-02-15T02:57:22;20.83;;;8.73;;
26920;SDS011;14483;47.844;9.660;2023-02-15T02:59:49;16.80;;;8.93;;
26920;SDS011;14483;47.844;9.660;2023-02-15T03:02:18;16.65;;;8.38;;
26920;SDS011;14483;47.844;9.660;2023-02-15T03:04:47;15.57;;;8.80;;
26920;SDS011;14483;47.844;9.660;2023-02-15T03:07:24;16.95;;;8.63;;
26920;SDS011;14483;47.844;9.660;2023-02-15T03:09:52;16.45;;;8.55;;
26920;SDS011;14483;47.844;9.660;2023-02-15T03:12:20;22.33;;;9.13;;
26920;SDS011;14483;47.844;9.660;2023-02-15T03:14:48;16.33;;;8.93;;
26920;SDS011;14483;47.844;9.660;2023-02-15T03:17:15;18.13;;;9.38;;
26920;SDS011;14483;47.844;9.660;2023-02-15T03:19:43;21.30;;;10.10;;
26920;SDS011;14483;47.844;9.660;2023-02-15T03:22:12;19.17;;;9.80;;
26920;SDS011;14483;47.844;9.660;2023-02-15T03:24:39;17.50;;;8.95;;
26920;SDS011;14483;47.844;9.660;2023-02-15T03:27:10;19.15;;;9.52;;
26920;SDS011;14483;47.844;9.660;2023-02-15T03:29:38;17.50;;;9.23;;
26920;SDS011;14483;47.844;9.660;2023-02-15T03:32:05;16.95;;;8.90;;
26920;SDS011;14483;47.844;9.660;2023-02-15T03:34:33;17.38;;;8.98;;
26920;SDS011;14483;47.844;9.660;2023-02-15T03:37:00;19.15;;;8.85;;
26920;SDS011;14483;47.844;9.660;2023-02-15T03:39:32;19.30;;;9.38;;
26920;SDS011;14483;47.844;9.660;2023-02-15T03:42:02;19.00;;;9.38;;
26920;SDS011;14483;47.844;9.660;2023-02-15T03:44:31;17.23;;;8.43;;
26920;SDS011;14483;47.844;9.660;2023-02-15T03:47:00;16.25;;;8.20;;
26920;SDS011;14483;47.844;9.660;2023-02-15T03:49:28;18.85;;;8.55;;
26920;SDS011;14483;47.844;9.660;2023-02-15T03:51:59;19.30;;;8.85;;
26920;SDS011;14483;47.844;9.660;2023-02-15T03:54:28;17.55;;;9.20;;
26920;SDS011;14483;47.844;9.660;2023-02-15T03:57:20;16.70;;;8.88;;
26920;SDS011;14483;47.844;9.660;2023-02-15T04:00:06;13.98;;;7.00;;
26920;SDS011;14483;47.844;9.660;2023-02-15T04:02:58;18.65;;;8.70;;
26920;SDS011;14483;47.844;9.660;2023-02-15T04:05:29;21.65;;;9.48;;
26920;SDS011;14483;47.844;9.660;2023-02-15T04:07:55;17.38;;;8.93;;
26920;SDS011;14483;47.844;9.660;2023-02-15T04:10:21;18.98;;;8.90;;
26920;SDS011;14483;47.844;9.660;2023-02-15T04:13:07;16.67;;;8.60;;
26920;SDS011;14483;47.844;9.660;2023-02-15T04:15:33;19.63;;;9.45;;
26920;SDS011;14483;47.844;9.660;2023-02-15T04:18:17;25.83;;;9.43;;
26920;SDS011;14483;47.844;9.660;2023-02-15T04:20:43;21.90;;;9.32;;
26920;SDS011;14483;47.844;9.660;2023-02-15T04:23:27;22.23;;;9.27;;
26920;SDS011;14483;47.844;9.660;2023-02-15T04:26:11;17.88;;;8.90;;
26920;SDS011;14483;47.844;9.660;2023-02-15T04:28:39;20.63;;;9.57;;
26920;SDS011;14483;47.844;9.660;2023-02-15T04:31:05;20.90;;;10.15;;
26920;SDS011;14483;47.844;9.660;2023-02-15T04:33:32;18.45;;;8.85;;
26920;SDS011;14483;47.844;9.660;2023-02-15T04:36:01;21.50;;;10.52;;
26920;SDS011;14483;47.844;9.660;2023-02-15T04:38:27;19.27;;;9.57;;
26920;SDS011;14483;47.844;9.660;2023-02-15T04:40:54;20.02;;;10.48;;
26920;SDS011;14483;47.844;9.660;2023-02-15T04:43:20;22.40;;;10.18;;
26920;SDS011;14483;47.844;9.660;2023-02-15T04:45:49;18.70;;;8.80;;
26920;SDS011;14483;47.844;9.660;2023-02-15T04:48:15;20.70;;;10.13;;
26920;SDS011;14483;47.844;9.660;2023-02-15T04:50:42;20.65;;;9.82;;
26920;SDS011;14483;47.844;9.660;2023-02-15T04:53:09;20.13;;;10.00;;
26920;SDS011;14483;47.844;9.660;2023-02-15T04:55:35;18.23;;;9.55;;
26920;SDS011;14483;47.844;9.660;2023-02-15T04:58:01;21.33;;;10.15;;
26920;SDS011;14483;47.844;9.660;2023-02-15T05:00:28;23.02;;;10.65;;
26920;SDS011;14483;47.844;9.660;2023-02-15T05:02:55;21.85;;;9.85;;
26920;SDS011;14483;47.844;9.660;2023-02-15T05:05:22;21.58;;;10.30;;
26920;SDS011;14483;47.844;9.660;2023-02-15T05:07:48;25.77;;;11.50;;
26920;SDS011;14483;47.844;9.660;2023-02-15T05:10:14;21.27;;;9.63;;
26920;SDS011;14483;47.844;9.660;2023-02-15T05:12:41;19.60;;;8.88;;
26920;SDS011;14483;47.844;9.660;2023-02-15T05:15:08;24.17;;;10.25;;
26920;SDS011;14483;47.844;9.660;2023-02-15T05:17:34;20.05;;;10.82;;
26920;SDS011;14483;47.844;9.660;2023-02-15T05:20:02;26.40;;;10.40;;
26920;SDS011;14483;47.844;9.660;2023-02-15T05:22:29;21.60;;;10.05;;
26920;SDS011;14483;47.844;9.660;2023-02-15T05:24:55;23.05;;;10.27;;
26920;SDS011;14483;47.844;9.660;2023-02-15T05:27:39;22.73;;;11.35;;
26920;SDS011;14483;47.844;9.660;2023-02-15T05:30:23;23.95;;;10.77;;
26920;SDS011;14483;47.844;9.660;2023-02-15T05:32:49;21.88;;;9.27;;
26920;SDS011;14483;47.844;9.660;2023-02-15T05:35:17;21.80;;;9.50;;
26920;SDS011;14483;47.844;9.660;2023-02-15T05:37:44;22.50;;;10.80;;
26920;SDS011;14483;47.844;9.660;2023-02-15T05:40:10;20.80;;;10.30;;
26920;SDS011;14483;47.844;9.660;2023-02-15T05:42:37;25.17;;;10.88;;
26920;SDS011;14483;47.844;9.660;2023-02-15T05:45:03;21.30;;;10.20;;
26920;SDS011;14483;47.844;9.660;2023-02-15T05:47:30;22.38;;;9.95;;
26920;SDS011;14483;47.844;9.660;2023-02-15T05:49:56;20.48;;;10.05;;
26920;SDS011;14483;47.844;9.660;2023-02-15T05:52:24;23.33;;;10.48;;
26920;SDS011;14483;47.844;9.660;2023-02-15T05:54:51;23.80;;;11.30;;
26920;SDS011;14483;47.844;9.660;2023-02-15T05:57:17;23.20;;;11.32;;
26920;SDS011;14483;47.844;9.660;2023-02-15T05:59:43;21.70;;;10.63;;
26920;SDS011;14483;47.844;9.660;2023-02-15T06:02:10;26.75;;;11.18;;
26920;SDS011;14483;47.844;9.660;2023-02-15T06:04:36;24.92;;;10.75;;
26920;SDS011;14483;47.844;9.660;2023-02-15T06:07:02;29.40;;;12.55;;
26920;SDS011;14483;47.844;9.660;2023-02-15T06:09:30;41.65;;;18.63;;
26920;SDS011;14483;47.844;9.660;2023-02-15T06:11:56;24.00;;;10.52;;
26920;SDS011;14483;47.844;9.660;2023-02-15T06:14:23;23.15;;;10.73;;
26920;SDS011;14483;47.844;9.660;2023-02-15T06:16:49;25.75;;;11.70;;
26920;SDS011;14483;47.844;9.660;2023-02-15T06:19:15;33.72;;;12.30;;
26920;SDS011;14483;47.844;9.660;2023-02-15T06:21:42;27.75;;;10.85;;
26920;SDS011;14483;47.844;9.660;2023-02-15T06:24:08;25.92;;;11.18;;
26920;SDS011;14483;47.844;9.660;2023-02-15T06:26:36;23.05;;;10.60;;
26920;SDS011;14483;47.844;9.660;2023-02-15T06:29:02;22.27;;;11.10;;
26920;SDS011;14483;47.844;9.660;2023-02-15T06:31:29;20.88;;;9.95;;
26920;SDS011;14483;47.844;9.660;2023-02-15T06:33:55;26.17;;;10.13;;
26920;SDS011;14483;47.844;9.660;2023-02-15T06:36:25;22.55;;;10.27;;
26920;SDS011;14483;47.844;9.660;2023-02-15T06:38:52;25.80;;;11.23;;
26920;SDS011;14483;47.844;9.660;2023-02-15T06:41:18;21.52;;;10.23;;
26920;SDS011;14483;47.844;9.660;2023-02-15T06:43:46;22.45;;;10.43;;
26920;SDS011;14483;47.844;9.660;2023-02-15T06:46:12;25.63;;;10.50;;
26920;SDS011;14483;47.844;9.660;2023-02-15T06:48:38;27.05;;;10.40;;
26920;SDS011;14483;47.844;9.660;2023-02-15T06:51:05;22.00;;;10.63;;
26920;SDS011;14483;47.844;9.660;2023-02-15T06:53:31;35.60;;;12.25;;
26920;SDS011;14483;47.844;9.660;2023-02-15T06:56:00;30.60;;;10.98;;
26920;SDS011;14483;47.844;9.660;2023-02-15T06:58:27;27.38;;;10.63;;
26920;SDS011;14483;47.844;9.660;2023-02-15T07:00:55;31.92;;;11.77;;
26920;SDS011;14483;47.844;9.660;2023-02-15T07:03:21;26.77;;;11.90;;
26920;SDS011;14483;47.844;9.660;2023-02-15T07:05:48;24.98;;;10.27;;
26920;SDS011;14483;47.844;9.660;2023-02-15T07:08:14;22.13;;;9.82;;
26920;SDS011;14483;47.844;9.660;2023-02-15T07:10:42;23.13;;;9.68;;
26920;SDS011;14483;47.844;9.660;2023-02-15T07:13:09;25.88;;;11.07;;
26920;SDS011;14483;47.844;9.660;2023-02-15T07:15:34;25.25;;;11.85;;
26920;SDS011;14483;47.844;9.660;2023-02-15T07:18:02;29.70;;;11.35;;
26920;SDS011;14483;47.844;9.660;2023-02-15T07:20:30;23.23;;;10.55;;
26920;SDS011;14483;47.844;9.660;2023-02-15T07:22:58;22.80;;;10.43;;
26920;SDS011;14483;47.844;9.660;2023-02-15T07:25:24;26.08;;;10.95;;
26920;SDS011;14483;47.844;9.660;2023-02-15T07:27:54;23.50;;;10.48;;
26920;SDS011;14483;47.844;9.660;2023-02-15T07:30:21;20.33;;;10.20;;
26920;SDS011;14483;47.844;9.660;2023-02-15T07:32:47;27.90;;;11.27;;
26920;SDS011;14483;47.844;9.660;2023-02-15T07:35:32;22.98;;;9.93;;
26920;SDS011;14483;47.844;9.660;2023-02-15T07:37:59;31.90;;;11.27;;
26920;SDS011;14483;47.844;9.660;2023-02-15T07:40:25;27.10;;;11.65;;
26920;SDS011;14483;47.844;9.660;2023-02-15T07:42:52;29.02;;;11.73;;
26920;SDS011;14483;47.844;9.660;2023-02-15T07:45:19;31.50;;;12.18;;
26920;SDS011;14483;47.844;9.660;2023-02-15T07:47:46;28.50;;;12.10;;
26920;SDS011;14483;47.844;9.660;2023-02-15T07:50:12;36.78;;;12.45;;
26920;SDS011;14483;47.844;9.660;2023-02-15T07:52:40;29.35;;;12.15;;
26920;SDS011;14483;47.844;9.660;2023-02-15T07:55:06;27.52;;;11.23;;
26920;SDS011;14483;47.844;9.660;2023-02-15T07:57:33;28.77;;;11.95;;
26920;SDS011;14483;47.844;9.660;2023-02-15T08:00:00;30.90;;;11.88;;
26920;SDS011;14483;47.844;9.660;2023-02-15T08:02:26;31.98;;;12.95;;
26920;SDS011;14483;47.844;9.660;2023-02-15T08:04:53;32.35;;;13.32;;
26920;SDS011;14483;47.844;9.660;2023-02-15T08:07:20;34.03;;;12.85;;
26920;SDS011;14483;47.844;9.660;2023-02-15T08:09:48;41.80;;;14.45;;
26920;SDS011;14483;47.844;9.660;2023-02-15T08:12:14;35.30;;;12.02;;
26920;SDS011;14483;47.844;9.660;2023-02-15T08:14:40;33.50;;;11.57;;
26920;SDS011;14483;47.844;9.660;2023-02-15T08:17:07;27.30;;;11.02;;
26920;SDS011;14483;47.844;9.660;2023-02-15T08:19:33;33.58;;;10.38;;
26920;SDS011;14483;47.844;9.660;2023-02-15T08:22:01;41.75;;;13.85;;
26920;SDS011;14483;47.844;9.660;2023-02-15T08:24:28;30.95;;;12.70;;
26920;SDS011;14483;47.844;9.660;2023-02-15T08:26:56;35.20;;;13.48;;
26920;SDS011;14483;47.844;9.660;2023-02-15T08:29:24;41.83;;;13.88;;
26920;SDS011;14483;47.844;9.660;2023-02-15T08:31:54;32.83;;;13.23;;
26920;SDS011;14483;47.844;9.660;2023-02-15T08:34:23;28.83;;;12.30;;
26920;SDS011;14483;47.844;9.660;2023-02-15T08:36:49;32.42;;;13.00;;
26920;SDS011;14483;47.844;9.660;2023-02-15T08:39:16;33.78;;;13.27;;
26920;SDS011;14483;47.844;9.660;2023-02-15T08:41:43;35.45;;;13.15;;
26920;SDS011;14483;47.844;9.660;2023-02-15T08:44:11;33.30;;;14.15;;
26920;SDS011;14483;47.844;9.660;2023-02-15T08:46:38;30.08;;;12.23;;
26920;SDS011;14483;47.844;9.660;2023-02-15T08:49:05;26.58;;;13.05;;
26920;SDS011;14483;47.844;9.660;2023-02-15T08:51:32;31.63;;;13.90;;
26920;SDS011;14483;47.844;9.660;2023-02-15T08:53:59;31.75;;;12.20;;
26920;SDS011;14483;47.844;9.660;2023-02-15T08:56:27;29.77;;;11.32;;
26920;SDS011;14483;47.844;9.660;2023-02-15T08:58:54;32.42;;;13.75;;
26920;SDS011;14483;47.844;9.660;2023-02-15T09:01:22;40.33;;;15.75;;
26920;SDS011;14483;47.844;9.660;2023-02-15T09:03:50;34.15;;;13.55;;
26920;SDS011;14483;47.844;9.660;2023-02-15T09:06:18;35.40;;;14.15;;
26920;SDS011;14483;47.844;9.660;2023-02-15T09:08:45;39.10;;;14.50;;
26920;SDS011;14483;47.844;9.660;2023-02-15T09:11:12;41.83;;;14.30;;
26920;SDS011;14483;47.844;9.660;2023-02-15T09:13:42;41.72;;;16.38;;
26920;SDS011;14483;47.844;9.660;2023-02-15T09:16:09;34.10;;;14.48;;
26920;SDS011;14483;47.844;9.660;2023-02-15T09:18:38;30.75;;;12.75;;
26920;SDS011;14483;47.844;9.660;2023-02-15T09:21:05;36.30;;;13.82;;
26920;SDS011;14483;47.844;9.660;2023-02-15T09:23:32;36.03;;;14.02;;
26920;SDS011;14483;47.844;9.660;2023-02-15T09:26:01;31.75;;;14.02;;
26920;SDS011;14483;47.844;9.660;2023-02-15T09:28:28;32.03;;;14.05;;
26920;SDS011;14483;47.844;9.660;2023-02-15T09:30:54;34.35;;;14.80;;
26920;SDS011;14483;47.844;9.660;2023-02-15T09:33:21;41.80;;;13.77;;
26920;SDS011;14483;47.844;9.660;2023-02-15T09:35:51;37.20;;;14.90;;
26920;SDS011;14483;47.844;9.660;2023-02-15T09:38:17;32.50;;;13.52;;
26920;SDS011;14483;47.844;9.660;2023-02-15T09:40:47;35.20;;;14.52;;
26920;SDS011;14483;47.844;9.660;2023-02-15T09:43:20;39.90;;;14.40;;
26920;SDS011;14483;47.844;9.660;2023-02-15T09:45:54;33.78;;;13.80;;
26920;SDS011;14483;47.844;9.660;2023-02-15T09:48:26;36.83;;;14.43;;
26920;SDS011;14483;47.844;9.660;2023-02-15T09:51:03;40.33;;;14.27;;
26920;SDS011;14483;47.844;9.660;2023-02-15T09:53:40;34.03;;;15.82;;
26920;SDS011;14483;47.844;9.660;2023-02-15T09:56:14;36.25;;;14.68;;
26920;SDS011;14483;47.844;9.660;2023-02-15T09:58:44;44.65;;;17.08;;
26920;SDS011;14483;47.844;9.660;2023-02-15T10:01:13;45.00;;;17.65;;
26920;SDS011;14483;47.844;9.660;2023-02-15T10:03:48;38.22;;;15.25;;
26920;SDS011;14483;47.844;9.660;2023-02-15T10:06:27;36.58;;;16.10;;
26920;SDS011;14483;47.844;9.660;2023-02-15T10:08:59;37.25;;;14.93;;
26920;SDS011;14483;47.844;9.660;2023-02-15T10:11:29;52.85;;;18.15;;
26920;SDS011;14483;47.844;9.660;2023-02-15T10:14:12;43.80;;;17.83;;
26920;SDS011;14483;47.844;9.660;2023-02-15T10:16:42;37.35;;;17.20;;
26920;SDS011;14483;47.844;9.660;2023-02-15T10:19:10;35.13;;;15.35;;
26920;SDS011;14483;47.844;9.660;2023-02-15T10:21:45;36.92;;;15.73;;
26920;SDS011;14483;47.844;9.660;2023-02-15T10:24:24;30.70;;;14.88;;
26920;SDS011;14483;47.844;9.660;2023-02-15T10:26:54;33.42;;;14.07;;
26920;SDS011;14483;47.844;9.660;2023-02-15T10:29:25;32.13;;;14.60;;
26920;SDS011;14483;47.844;9.660;2023-02-15T10:31:55;27.73;;;13.70;;
26920;SDS011;14483;47.844;9.660;2023-02-15T10:34:26;35.70;;;14.85;;
26920;SDS011;14483;47.844;9.660;2023-02-15T10:39:48;36.92;;;20.95;;
26920;SDS011;14483;47.844;9.660;2023-02-15T10:42:20;32.45;;;14.85;;
26920;SDS011;14483;47.844;9.660;2023-02-15T10:47:22;33.42;;;13.75;;
26920;SDS011;14483;47.844;9.660;2023-02-15T10:49:53;41.13;;;16.73;;
26920;SDS011;14483;47.844;9.660;2023-02-15T10:52:29;33.75;;;16.00;;
26920;SDS011;14483;47.844;9.660;2023-02-15T10:55:00;35.28;;;15.43;;
26920;SDS011;14483;47.844;9.660;2023-02-15T10:57:32;35.45;;;15.52;;
26920;SDS011;14483;47.844;9.660;2023-02-15T11:00:05;34.75;;;14.98;;
26920;SDS011;14483;47.844;9.660;2023-02-15T11:02:38;32.72;;;15.98;;
26920;SDS011;14483;47.844;9.660;2023-02-15T11:05:13;26.33;;;13.13;;
26920;SDS011;14483;47.844;9.660;2023-02-15T11:07:43;33.20;;;14.98;;
26920;SDS011;14483;47.844;9.660;2023-02-15T11:10:22;33.72;;;15.05;;
26920;SDS011;14483;47.844;9.660;2023-02-15T11:12:51;33.47;;;14.15;;
26920;SDS011;14483;47.844;9.660;2023-02-15T11:15:19;32.90;;;14.13;;
26920;SDS011;14483;47.844;9.660;2023-02-15T11:17:49;31.25;;;14.50;;
26920;SDS011;14483;47.844;9.660;2023-02-15T11:20:19;35.83;;;15.63;;
26920;SDS011;14483;47.844;9.660;2023-02-15T11:22:48;37.92;;;16.42;;
26920;SDS011;14483;47.844;9.660;2023-02-15T11:25:17;37.38;;;16.00;;
26920;SDS011;14483;47.844;9.660;2023-02-15T11:27:45;37.00;;;18.20;;
26920;SDS011;14483;47.844;9.660;2023-02-15T11:30:13;32.85;;;15.38;;
26920;SDS011;14483;47.844;9.660;2023-02-15T11:32:40;34.47;;;15.82;;
26920;SDS011;14483;47.844;9.660;2023-02-15T11:35:11;33.95;;;16.98;;
26920;SDS011;14483;47.844;9.660;2023-02-15T11:37:45;33.30;;;14.50;;
26920;SDS011;14483;47.844;9.660;2023-02-15T11:40:15;35.92;;;15.75;;
26920;SDS011;14483;47.844;9.660;2023-02-15T11:42:44;38.47;;;15.82;;
26920;SDS011;14483;47.844;9.660;2023-02-15T11:45:16;31.88;;;14.77;;
26920;SDS011;14483;47.844;9.660;2023-02-15T11:47:44;34.45;;;15.60;;
26920;SDS011;14483;47.844;9.660;2023-02-15T11:50:11;35.25;;;14.75;;
26920;SDS011;14483;47.844;9.660;2023-02-15T11:52:37;32.08;;;15.45;;
26920;SDS011;14483;47.844;9.660;2023-02-15T11:55:09;38.95;;;17.23;;
26920;SDS011;14483;47.844;9.660;2023-02-15T11:57:38;30.10;;;14.20;;
26920;SDS011;14483;47.844;9.660;2023-02-15T12:00:09;28.40;;;13.52;;
26920;SDS011;14483;47.844;9.660;2023-02-15T12:02:37;39.05;;;15.98;;
26920;SDS011;14483;47.844;9.660;2023-02-15T12:05:05;37.65;;;16.27;;
26920;SDS011;14483;47.844;9.660;2023-02-15T12:07:34;35.58;;;14.40;;
26920;SDS011;14483;47.844;9.660;2023-02-15T12:10:03;34.28;;;14.48;;
26920;SDS011;14483;47.844;9.660;2023-02-15T12:12:32;32.88;;;14.18;;
26920;SDS011;14483;47.844;9.660;2023-02-15T12:15:00;28.95;;;14.00;;
26920;SDS011;14483;47.844;9.660;2023-02-15T12:17:28;35.30;;;15.80;;
26920;SDS011;14483;47.844;9.660;2023-02-15T12:19:56;31.23;;;13.88;;
26920;SDS011;14483;47.844;9.660;2023-02-15T12:22:24;33.28;;;14.95;;
26920;SDS011;14483;47.844;9.660;2023-02-15T12:24:52;33.05;;;15.60;;
26920;SDS011;14483;47.844;9.660;2023-02-15T12:27:20;35.33;;;15.77;;
26920;SDS011;14483;47.844;9.660;2023-02-15T12:29:48;33.00;;;15.32;;
26920;SDS011;14483;47.844;9.660;2023-02-15T12:32:18;40.17;;;17.25;;
26920;SDS011;14483;47.844;9.660;2023-02-15T12:34:46;37.55;;;16.73;;
26920;SDS011;14483;47.844;9.660;2023-02-15T12:37:17;35.70;;;16.65;;
26920;SDS011;14483;47.844;9.660;2023-02-15T12:39:50;36.30;;;15.75;;
26920;SDS011;14483;47.844;9.660;2023-02-15T12:42:17;33.42;;;16.08;;
26920;SDS011;14483;47.844;9.660;2023-02-15T12:44:53;33.45;;;17.35;;
26920;SDS011;14483;47.844;9.660;2023-02-15T12:47:20;32.95;;;16.10;;
26920;SDS011;14483;47.844;9.660;2023-02-15T12:50:04;29.73;;;14.65;;
26920;SDS011;14483;47.844;9.660;2023-02-15T12:52:31;32.13;;;16.58;;
26920;SDS011;14483;47.844;9.660;2023-02-15T12:55:03;29.40;;;15.38;;
26920;SDS011;14483;47.844;9.660;2023-02-15T12:57:36;32.08;;;15.05;;
26920;SDS011;14483;47.844;9.660;2023-02-15T13:00:03;32.72;;;15.43;;
26920;SDS011;14483;47.844;9.660;2023-02-15T13:02:33;36.70;;;16.17;;
26920;SDS011;14483;47.844;9.660;2023-02-15T13:05:05;33.17;;;15.90;;
26920;SDS011;14483;47.844;9.660;2023-02-15T13:10:00;33.88;;;16.77;;
26920;SDS011;14483;47.844;9.660;2023-02-15T13:12:27;36.55;;;15.80;;
26920;SDS011;14483;47.844;9.660;2023-02-15T13:14:56;34.22;;;14.75;;
26920;SDS011;14483;47.844;9.660;2023-02-15T13:17:24;32.50;;;16.00;;
26920;SDS011;14483;47.844;9.660;2023-02-15T13:19:54;29.83;;;15.35;;
26920;SDS011;14483;47.844;9.660;2023-02-15T13:22:24;32.03;;;14.32;;
26920;SDS011;14483;47.844;9.660;2023-02-15T13:24:53;29.85;;;14.45;;
26920;SDS011;14483;47.844;9.660;2023-02-15T13:27:22;28.15;;;15.00;;
26920;SDS011;14483;47.844;9.660;2023-02-15T13:29:50;30.67;;;15.98;;
26920;SDS011;14483;47.844;9.660;2023-02-15T13:32:22;31.30;;;14.93;;
26920;SDS011;14483;47.844;9.660;2023-02-15T13:34:50;34.05;;;14.68;;
26920;SDS011;14483;47.844;9.660;2023-02-15T13:37:18;36.35;;;15.30;;
26920;SDS011;14483;47.844;9.660;2023-02-15T13:39:48;37.35;;;15.73;;
26920;SDS011;14483;47.844;9.660;2023-02-15T13:42:18;27.90;;;14.55;;
26920;SDS011;14483;47.844;9.660;2023-02-15T13:44:51;30.00;;;15.18;;
26920;SDS011;14483;47.844;9.660;2023-02-15T13:47:23;30.65;;;14.05;;
26920;SDS011;14483;47.844;9.660;2023-02-15T13:49:58;32.15;;;16.27;;
26920;SDS011;14483;47.844;9.660;2023-02-15T13:52:29;25.45;;;13.98;;
26920;SDS011;14483;47.844;9.660;2023-02-15T13:57:52;26.05;;;14.23;;
26920;SDS011;14483;47.844;9.660;2023-02-15T14:00:25;31.20;;;14.88;;
26920;SDS011;14483;47.844;9.660;2023-02-15T14:03:05;28.85;;;14.75;;
26920;SDS011;14483;47.844;9.660;2023-02-15T14:05:41;28.15;;;14.70;;
26920;SDS011;14483;47.844;9.660;2023-02-15T14:08:13;27.38;;;14.52;;
26920;SDS011;14483;47.844;9.660;2023-02-15T14:10:46;26.63;;;15.18;;
26920;SDS011;14483;47.844;9.660;2023-02-15T14:13:25;28.52;;;14.35;;
26920;SDS011;14483;47.844;9.660;2023-02-15T14:15:57;27.60;;;14.13;;
26920;SDS011;14483;47.844;9.660;2023-02-15T14:18:28;24.40;;;14.27;;
26920;SDS011;14483;47.844;9.660;2023-02-15T14:20:58;29.02;;;15.48;;
26920;SDS011;14483;47.844;9.660;2023-02-15T14:23:31;28.75;;;14.90;;
26920;SDS011;14483;47.844;9.660;2023-02-15T14:26:02;26.48;;;13.20;;
26920;SDS011;14483;47.844;9.660;2023-02-15T14:28:34;22.73;;;12.75;;
26920;SDS011;14483;47.844;9.660;2023-02-15T14:31:03;25.45;;;13.02;;
26920;SDS011;14483;47.844;9.660;2023-02-15T14:33:34;27.98;;;13.15;;
26920;SDS011;14483;47.844;9.660;2023-02-15T14:36:03;23.83;;;13.40;;
26920;SDS011;14483;47.844;9.660;2023-02-15T14:38:36;25.38;;;13.43;;
26920;SDS011;14483;47.844;9.660;2023-02-15T14:41:04;24.15;;;12.77;;
26920;SDS011;14483;47.844;9.660;2023-02-15T14:43:41;24.10;;;12.48;;
26920;SDS011;14483;47.844;9.660;2023-02-15T14:46:12;21.33;;;12.18;;
26920;SDS011;14483;47.844;9.660;2023-02-15T14:48:42;25.13;;;13.25;;
26920;SDS011;14483;47.844;9.660;2023-02-15T14:51:16;25.05;;;12.43;;
26920;SDS011;14483;47.844;9.660;2023-02-15T14:54:05;23.73;;;12.90;;
26920;SDS011;14483;47.844;9.660;2023-02-15T14:56:32;21.73;;;11.30;;